sensor_id;sensor_type;location;lat;lon;timestamp;P1;durP1;ratioP1;P2;durP2;ratioP2
28577;SDS011;15769;52.248;15.818;2023-05-19T00:02:38;9.90;;;5.33;;
28577;SDS011;15769;52.248;15.818;2023-05-19T00:07:41;7.18;;;4.35;;
28577;SDS011;15769;52.248;15.818;2023-05-19T00:12:45;9.35;;;4.00;;
28577;SDS011;15769;52.248;15.818;2023-05-19T00:17:48;10.00;;;4.45;;
28577;SDS011;15769;52.248;15.818;2023-05-19T00:22:53;7.68;;;4.30;;
28577;SDS011;15769;52.248;15.818;2023-05-19T00:27:56;7.88;;;4.43;;
28577;SDS011;15769;52.248;15.818;2023-05-19T00:33:01;9.73;;;4.38;;
28577;SDS011;15769;52.248;15.818;2023-05-19T00:38:03;12.38;;;4.80;;
28577;SDS011;15769;52.248;15.818;2023-05-19T00:43:06;11.57;;;4.68;;
28577;SDS011;15769;52.248;15.818;2023-05-19T00:48:10;8.20;;;4.10;;
28577;SDS011;15769;52.248;15.818;2023-05-19T00:53:14;10.07;;;4.10;;
28577;SDS011;15769;52.248;15.818;2023-05-19T00:58:19;8.23;;;3.85;;
28577;SDS011;15769;52.248;15.818;2023-05-19T01:03:21;6.83;;;3.27;;
28577;SDS011;15769;52.248;15.818;2023-05-19T01:08:24;7.20;;;3.40;;
28577;SDS011;15769;52.248;15.818;2023-05-19T01:13:27;6.03;;;3.40;;
28577;SDS011;15769;52.248;15.818;2023-05-19T01:30:29;7.13;;;3.45;;
28577;SDS011;15769;52.248;15.818;2023-05-19T01:35:37;7.35;;;3.10;;
28577;SDS011;15769;52.248;15.818;2023-05-19T01:40:40;9.25;;;4.05;;
28577;SDS011;15769;52.248;15.818;2023-05-19T01:45:46;7.82;;;3.58;;
28577;SDS011;15769;52.248;15.818;2023-05-19T01:50:50;9.15;;;3.92;;
28577;SDS011;15769;52.248;15.818;2023-05-19T01:55:53;6.05;;;3.22;;
28577;SDS011;15769;52.248;15.818;2023-05-19T02:01:05;7.03;;;3.28;;
28577;SDS011;15769;52.248;15.818;2023-05-19T02:06:31;5.75;;;3.30;;
28577;SDS011;15769;52.248;15.818;2023-05-19T02:12:23;6.20;;;3.55;;
28577;SDS011;15769;52.248;15.818;2023-05-19T02:17:37;6.38;;;3.58;;
28577;SDS011;15769;52.248;15.818;2023-05-19T02:22:49;8.85;;;3.80;;
28577;SDS011;15769;52.248;15.818;2023-05-19T02:27:53;7.15;;;3.70;;
28577;SDS011;15769;52.248;15.818;2023-05-19T02:32:57;8.02;;;3.85;;
28577;SDS011;15769;52.248;15.818;2023-05-19T02:38:00;11.60;;;4.77;;
28577;SDS011;15769;52.248;15.818;2023-05-19T02:43:06;11.27;;;4.82;;
28577;SDS011;15769;52.248;15.818;2023-05-19T02:48:09;15.43;;;6.03;;
28577;SDS011;15769;52.248;15.818;2023-05-19T02:53:12;35.22;;;10.85;;
28577;SDS011;15769;52.248;15.818;2023-05-19T02:58:15;20.07;;;7.23;;
28577;SDS011;15769;52.248;15.818;2023-05-19T03:03:18;14.83;;;5.67;;
28577;SDS011;15769;52.248;15.818;2023-05-19T03:08:21;36.00;;;10.73;;
28577;SDS011;15769;52.248;15.818;2023-05-19T03:13:23;24.57;;;7.83;;
28577;SDS011;15769;52.248;15.818;2023-05-19T03:18:28;33.38;;;10.73;;
28577;SDS011;15769;52.248;15.818;2023-05-19T03:23:34;27.60;;;9.15;;
28577;SDS011;15769;52.248;15.818;2023-05-19T03:28:38;10.60;;;4.10;;
28577;SDS011;15769;52.248;15.818;2023-05-19T03:33:41;5.28;;;3.10;;
28577;SDS011;15769;52.248;15.818;2023-05-19T03:38:44;8.70;;;3.55;;
28577;SDS011;15769;52.248;15.818;2023-05-19T03:43:47;5.97;;;3.60;;
28577;SDS011;15769;52.248;15.818;2023-05-19T03:48:50;7.32;;;3.33;;
28577;SDS011;15769;52.248;15.818;2023-05-19T03:54:15;6.18;;;3.25;;
28577;SDS011;15769;52.248;15.818;2023-05-19T03:59:19;14.60;;;5.97;;
28577;SDS011;15769;52.248;15.818;2023-05-19T04:04:22;23.53;;;7.50;;
28577;SDS011;15769;52.248;15.818;2023-05-19T04:09:25;29.53;;;8.60;;
28577;SDS011;15769;52.248;15.818;2023-05-19T04:14:29;46.65;;;13.18;;
28577;SDS011;15769;52.248;15.818;2023-05-19T04:19:32;70.90;;;19.70;;
28577;SDS011;15769;52.248;15.818;2023-05-19T04:24:36;81.75;;;20.38;;
28577;SDS011;15769;52.248;15.818;2023-05-19T04:29:39;51.15;;;15.32;;
28577;SDS011;15769;52.248;15.818;2023-05-19T04:34:43;53.38;;;24.75;;
28577;SDS011;15769;52.248;15.818;2023-05-19T04:39:56;25.55;;;10.57;;
28577;SDS011;15769;52.248;15.818;2023-05-19T04:45:00;17.33;;;6.00;;
28577;SDS011;15769;52.248;15.818;2023-05-19T04:50:11;18.02;;;6.53;;
28577;SDS011;15769;52.248;15.818;2023-05-19T04:55:14;13.35;;;4.80;;
28577;SDS011;15769;52.248;15.818;2023-05-19T05:00:19;9.75;;;3.38;;
28577;SDS011;15769;52.248;15.818;2023-05-19T05:05:33;7.50;;;3.20;;
28577;SDS011;15769;52.248;15.818;2023-05-19T05:10:36;3.92;;;2.50;;
28577;SDS011;15769;52.248;15.818;2023-05-19T05:15:39;6.00;;;3.75;;
28577;SDS011;15769;52.248;15.818;2023-05-19T05:20:44;5.18;;;3.33;;
28577;SDS011;15769;52.248;15.818;2023-05-19T05:25:50;6.45;;;2.97;;
28577;SDS011;15769;52.248;15.818;2023-05-19T05:30:54;6.25;;;2.70;;
28577;SDS011;15769;52.248;15.818;2023-05-19T05:35:59;4.90;;;2.47;;
28577;SDS011;15769;52.248;15.818;2023-05-19T05:41:03;4.35;;;2.75;;
28577;SDS011;15769;52.248;15.818;2023-05-19T05:46:08;6.63;;;2.72;;
28577;SDS011;15769;52.248;15.818;2023-05-19T05:51:11;8.63;;;4.00;;
28577;SDS011;15769;52.248;15.818;2023-05-19T05:56:17;9.77;;;4.18;;
28577;SDS011;15769;52.248;15.818;2023-05-19T06:07:48;7.28;;;3.03;;
28577;SDS011;15769;52.248;15.818;2023-05-19T06:19:17;9.35;;;4.38;;
28577;SDS011;15769;52.248;15.818;2023-05-19T06:25:15;7.53;;;3.80;;
28577;SDS011;15769;52.248;15.818;2023-05-19T06:32:11;5.32;;;3.60;;
28577;SDS011;15769;52.248;15.818;2023-05-19T06:38:59;8.23;;;4.10;;
28577;SDS011;15769;52.248;15.818;2023-05-19T06:44:51;9.45;;;3.97;;
28577;SDS011;15769;52.248;15.818;2023-05-19T06:50:21;11.88;;;4.10;;
28577;SDS011;15769;52.248;15.818;2023-05-19T06:55:39;6.97;;;3.42;;
28577;SDS011;15769;52.248;15.818;2023-05-19T07:01:09;4.40;;;2.97;;
28577;SDS011;15769;52.248;15.818;2023-05-19T07:06:51;4.20;;;3.00;;
28577;SDS011;15769;52.248;15.818;2023-05-19T07:18:26;5.95;;;3.10;;
28577;SDS011;15769;52.248;15.818;2023-05-19T07:35:57;4.95;;;3.03;;
28577;SDS011;15769;52.248;15.818;2023-05-19T07:41:16;6.30;;;2.90;;
28577;SDS011;15769;52.248;15.818;2023-05-19T07:46:26;7.38;;;3.70;;
28577;SDS011;15769;52.248;15.818;2023-05-19T07:51:54;6.70;;;3.25;;
28577;SDS011;15769;52.248;15.818;2023-05-19T07:57:03;4.45;;;2.60;;
28577;SDS011;15769;52.248;15.818;2023-05-19T08:02:25;5.22;;;3.13;;
28577;SDS011;15769;52.248;15.818;2023-05-19T08:07:37;3.72;;;2.60;;
28577;SDS011;15769;52.248;15.818;2023-05-19T08:18:21;5.93;;;2.50;;
28577;SDS011;15769;52.248;15.818;2023-05-19T08:23:33;4.60;;;2.60;;
28577;SDS011;15769;52.248;15.818;2023-05-19T08:28:36;4.05;;;2.40;;
28577;SDS011;15769;52.248;15.818;2023-05-19T08:33:39;5.93;;;2.95;;
28577;SDS011;15769;52.248;15.818;2023-05-19T08:38:41;5.95;;;2.60;;
28577;SDS011;15769;52.248;15.818;2023-05-19T08:48:48;3.92;;;2.42;;
28577;SDS011;15769;52.248;15.818;2023-05-19T08:53:58;3.92;;;2.50;;
28577;SDS011;15769;52.248;15.818;2023-05-19T08:59:06;4.18;;;2.67;;
28577;SDS011;15769;52.248;15.818;2023-05-19T09:04:09;5.10;;;2.72;;
28577;SDS011;15769;52.248;15.818;2023-05-19T09:09:13;4.63;;;2.42;;
28577;SDS011;15769;52.248;15.818;2023-05-19T09:14:18;5.15;;;2.47;;
28577;SDS011;15769;52.248;15.818;2023-05-19T09:24:24;4.45;;;2.55;;
28577;SDS011;15769;52.248;15.818;2023-05-19T09:29:27;5.55;;;2.70;;
28577;SDS011;15769;52.248;15.818;2023-05-19T09:39:33;4.03;;;2.05;;
28577;SDS011;15769;52.248;15.818;2023-05-19T09:44:36;3.90;;;2.15;;
28577;SDS011;15769;52.248;15.818;2023-05-19T09:54:51;4.05;;;2.20;;
28577;SDS011;15769;52.248;15.818;2023-05-19T10:00:01;5.43;;;2.60;;
28577;SDS011;15769;52.248;15.818;2023-05-19T10:05:17;5.80;;;2.67;;
28577;SDS011;15769;52.248;15.818;2023-05-19T10:10:23;4.72;;;2.90;;
28577;SDS011;15769;52.248;15.818;2023-05-19T10:15:26;7.20;;;2.70;;
28577;SDS011;15769;52.248;15.818;2023-05-19T10:20:29;6.25;;;2.90;;
28577;SDS011;15769;52.248;15.818;2023-05-19T10:25:36;8.70;;;3.13;;
28577;SDS011;15769;52.248;15.818;2023-05-19T10:30:40;6.30;;;3.55;;
28577;SDS011;15769;52.248;15.818;2023-05-19T10:46:28;5.40;;;3.70;;
28577;SDS011;15769;52.248;15.818;2023-05-19T10:51:31;4.97;;;3.20;;
28577;SDS011;15769;52.248;15.818;2023-05-19T10:56:35;4.85;;;2.83;;
28577;SDS011;15769;52.248;15.818;2023-05-19T11:01:44;5.18;;;3.70;;
28577;SDS011;15769;52.248;15.818;2023-05-19T11:06:49;6.75;;;4.10;;
28577;SDS011;15769;52.248;15.818;2023-05-19T11:11:53;6.47;;;4.40;;
28577;SDS011;15769;52.248;15.818;2023-05-19T11:16:57;7.40;;;4.03;;
28577;SDS011;15769;52.248;15.818;2023-05-19T11:22:07;4.97;;;3.38;;
28577;SDS011;15769;52.248;15.818;2023-05-19T11:27:18;7.60;;;3.45;;
28577;SDS011;15769;52.248;15.818;2023-05-19T11:32:31;10.85;;;4.43;;
28577;SDS011;15769;52.248;15.818;2023-05-19T11:37:35;9.93;;;4.28;;
28577;SDS011;15769;52.248;15.818;2023-05-19T11:42:40;5.65;;;3.30;;
28577;SDS011;15769;52.248;15.818;2023-05-19T11:47:53;6.25;;;3.03;;
28577;SDS011;15769;52.248;15.818;2023-05-19T11:53:07;6.53;;;3.65;;
28577;SDS011;15769;52.248;15.818;2023-05-19T11:58:13;4.55;;;2.65;;
28577;SDS011;15769;52.248;15.818;2023-05-19T12:03:19;4.45;;;2.20;;
28577;SDS011;15769;52.248;15.818;2023-05-19T12:08:23;4.82;;;2.90;;
28577;SDS011;15769;52.248;15.818;2023-05-19T12:13:26;8.18;;;2.90;;
28577;SDS011;15769;52.248;15.818;2023-05-19T12:18:30;10.52;;;3.70;;
28577;SDS011;15769;52.248;15.818;2023-05-19T12:23:42;6.00;;;2.72;;
28577;SDS011;15769;52.248;15.818;2023-05-19T12:28:45;5.07;;;3.03;;
28577;SDS011;15769;52.248;15.818;2023-05-19T12:33:51;5.28;;;2.88;;
28577;SDS011;15769;52.248;15.818;2023-05-19T12:38:58;4.60;;;2.70;;
28577;SDS011;15769;52.248;15.818;2023-05-19T12:44:11;5.28;;;2.88;;
28577;SDS011;15769;52.248;15.818;2023-05-19T12:49:19;5.30;;;2.38;;
28577;SDS011;15769;52.248;15.818;2023-05-19T12:54:24;3.42;;;2.50;;
28577;SDS011;15769;52.248;15.818;2023-05-19T12:59:27;3.95;;;2.53;;
28577;SDS011;15769;52.248;15.818;2023-05-19T13:04:40;4.67;;;2.30;;
28577;SDS011;15769;52.248;15.818;2023-05-19T13:09:42;3.33;;;2.00;;
28577;SDS011;15769;52.248;15.818;2023-05-19T13:14:46;6.13;;;2.40;;
28577;SDS011;15769;52.248;15.818;2023-05-19T13:19:48;2.67;;;2.00;;
28577;SDS011;15769;52.248;15.818;2023-05-19T13:24:55;3.90;;;2.40;;
28577;SDS011;15769;52.248;15.818;2023-05-19T13:30:00;5.28;;;2.22;;
28577;SDS011;15769;52.248;15.818;2023-05-19T13:35:07;8.05;;;2.10;;
28577;SDS011;15769;52.248;15.818;2023-05-19T13:40:14;5.47;;;2.67;;
28577;SDS011;15769;52.248;15.818;2023-05-19T13:45:20;5.97;;;4.32;;
28577;SDS011;15769;52.248;15.818;2023-05-19T13:50:26;4.60;;;2.38;;
28577;SDS011;15769;52.248;15.818;2023-05-19T13:55:30;4.93;;;2.65;;
28577;SDS011;15769;52.248;15.818;2023-05-19T14:00:33;3.38;;;2.50;;
28577;SDS011;15769;52.248;15.818;2023-05-19T14:05:41;3.22;;;2.10;;
28577;SDS011;15769;52.248;15.818;2023-05-19T14:10:50;5.57;;;2.25;;
28577;SDS011;15769;52.248;15.818;2023-05-19T14:15:53;4.32;;;2.90;;
28577;SDS011;15769;52.248;15.818;2023-05-19T14:20:56;9.00;;;4.45;;
28577;SDS011;15769;52.248;15.818;2023-05-19T14:25:59;9.63;;;4.82;;
28577;SDS011;15769;52.248;15.818;2023-05-19T14:31:05;7.55;;;4.43;;
28577;SDS011;15769;52.248;15.818;2023-05-19T14:36:08;5.45;;;3.38;;
28577;SDS011;15769;52.248;15.818;2023-05-19T14:41:11;7.50;;;4.07;;
28577;SDS011;15769;52.248;15.818;2023-05-19T14:46:14;4.82;;;3.35;;
28577;SDS011;15769;52.248;15.818;2023-05-19T14:51:18;42.45;;;38.35;;
28577;SDS011;15769;52.248;15.818;2023-05-19T14:56:22;15.38;;;10.75;;
28577;SDS011;15769;52.248;15.818;2023-05-19T15:01:25;7.28;;;3.05;;
28577;SDS011;15769;52.248;15.818;2023-05-19T15:06:28;7.63;;;3.50;;
28577;SDS011;15769;52.248;15.818;2023-05-19T15:11:33;4.75;;;2.75;;
28577;SDS011;15769;52.248;15.818;2023-05-19T15:21:42;4.38;;;2.50;;
28577;SDS011;15769;52.248;15.818;2023-05-19T15:26:47;4.70;;;2.45;;
28577;SDS011;15769;52.248;15.818;2023-05-19T15:31:50;32.95;;;24.25;;
28577;SDS011;15769;52.248;15.818;2023-05-19T15:36:56;8.68;;;5.80;;
28577;SDS011;15769;52.248;15.818;2023-05-19T15:41:59;8.52;;;4.63;;
28577;SDS011;15769;52.248;15.818;2023-05-19T15:47:02;12.07;;;5.82;;
28577;SDS011;15769;52.248;15.818;2023-05-19T15:52:05;6.63;;;4.93;;
28577;SDS011;15769;52.248;15.818;2023-05-19T15:57:15;8.85;;;5.45;;
28577;SDS011;15769;52.248;15.818;2023-05-19T16:02:18;7.43;;;4.93;;
28577;SDS011;15769;52.248;15.818;2023-05-19T16:07:21;9.35;;;5.80;;
28577;SDS011;15769;52.248;15.818;2023-05-19T16:17:28;7.45;;;4.20;;
28577;SDS011;15769;52.248;15.818;2023-05-19T16:22:31;12.48;;;6.78;;
28577;SDS011;15769;52.248;15.818;2023-05-19T16:27:34;16.80;;;6.40;;
28577;SDS011;15769;52.248;15.818;2023-05-19T16:32:36;9.57;;;5.13;;
28577;SDS011;15769;52.248;15.818;2023-05-19T16:37:39;7.87;;;4.57;;
28577;SDS011;15769;52.248;15.818;2023-05-19T16:42:42;9.98;;;4.53;;
28577;SDS011;15769;52.248;15.818;2023-05-19T16:47:45;9.98;;;6.18;;
28577;SDS011;15769;52.248;15.818;2023-05-19T16:52:48;9.63;;;4.68;;
28577;SDS011;15769;52.248;15.818;2023-05-19T16:57:52;6.30;;;4.20;;
28577;SDS011;15769;52.248;15.818;2023-05-19T17:02:56;6.80;;;4.40;;
28577;SDS011;15769;52.248;15.818;2023-05-19T17:08:00;8.05;;;4.88;;
28577;SDS011;15769;52.248;15.818;2023-05-19T17:13:03;19.92;;;9.10;;
28577;SDS011;15769;52.248;15.818;2023-05-19T17:18:07;10.30;;;6.43;;
28577;SDS011;15769;52.248;15.818;2023-05-19T17:23:11;12.27;;;5.50;;
28577;SDS011;15769;52.248;15.818;2023-05-19T17:28:14;11.07;;;4.93;;
28577;SDS011;15769;52.248;15.818;2023-05-19T17:33:17;12.13;;;6.07;;
28577;SDS011;15769;52.248;15.818;2023-05-19T17:38:20;11.57;;;5.90;;
28577;SDS011;15769;52.248;15.818;2023-05-19T17:43:23;8.68;;;5.10;;
28577;SDS011;15769;52.248;15.818;2023-05-19T17:48:26;8.38;;;4.95;;
28577;SDS011;15769;52.248;15.818;2023-05-19T17:53:30;20.55;;;8.70;;
28577;SDS011;15769;52.248;15.818;2023-05-19T17:58:33;12.35;;;6.95;;
28577;SDS011;15769;52.248;15.818;2023-05-19T18:03:36;15.95;;;10.48;;
28577;SDS011;15769;52.248;15.818;2023-05-19T18:13:45;18.77;;;11.07;;
28577;SDS011;15769;52.248;15.818;2023-05-19T18:23:51;81.13;;;47.78;;
28577;SDS011;15769;52.248;15.818;2023-05-19T18:28:55;132.80;;;76.20;;
28577;SDS011;15769;52.248;15.818;2023-05-19T18:34:03;97.35;;;49.40;;
28577;SDS011;15769;52.248;15.818;2023-05-19T18:39:06;357.20;;;178.40;;
28577;SDS011;15769;52.248;15.818;2023-05-19T18:44:09;153.77;;;79.10;;
28577;SDS011;15769;52.248;15.818;2023-05-19T18:49:13;211.13;;;116.57;;
28577;SDS011;15769;52.248;15.818;2023-05-19T18:54:19;95.38;;;49.88;;
28577;SDS011;15769;52.248;15.818;2023-05-19T18:59:33;121.18;;;55.65;;
28577;SDS011;15769;52.248;15.818;2023-05-19T19:04:37;17.00;;;11.20;;
28577;SDS011;15769;52.248;15.818;2023-05-19T19:09:40;32.50;;;16.83;;
28577;SDS011;15769;52.248;15.818;2023-05-19T19:14:45;10.55;;;6.55;;
28577;SDS011;15769;52.248;15.818;2023-05-19T19:19:48;35.70;;;19.85;;
28577;SDS011;15769;52.248;15.818;2023-05-19T19:24:51;24.38;;;10.75;;
28577;SDS011;15769;52.248;15.818;2023-05-19T19:29:54;17.92;;;9.00;;
28577;SDS011;15769;52.248;15.818;2023-05-19T19:35:03;23.15;;;10.70;;
28577;SDS011;15769;52.248;15.818;2023-05-19T19:40:10;23.83;;;12.10;;
28577;SDS011;15769;52.248;15.818;2023-05-19T19:45:16;23.00;;;11.70;;
28577;SDS011;15769;52.248;15.818;2023-05-19T19:50:22;19.80;;;9.82;;
28577;SDS011;15769;52.248;15.818;2023-05-19T19:55:25;21.88;;;10.00;;
28577;SDS011;15769;52.248;15.818;2023-05-19T20:00:28;24.98;;;12.50;;
28577;SDS011;15769;52.248;15.818;2023-05-19T20:05:32;17.95;;;10.68;;
28577;SDS011;15769;52.248;15.818;2023-05-19T20:10:37;16.15;;;8.82;;
28577;SDS011;15769;52.248;15.818;2023-05-19T20:15:41;12.70;;;7.65;;
28577;SDS011;15769;52.248;15.818;2023-05-19T20:20:48;11.38;;;7.13;;
28577;SDS011;15769;52.248;15.818;2023-05-19T20:25:55;30.58;;;14.35;;
28577;SDS011;15769;52.248;15.818;2023-05-19T20:31:17;74.05;;;34.58;;
28577;SDS011;15769;52.248;15.818;2023-05-19T20:36:21;47.28;;;19.52;;
28577;SDS011;15769;52.248;15.818;2023-05-19T20:41:24;25.83;;;11.63;;
28577;SDS011;15769;52.248;15.818;2023-05-19T20:46:28;29.20;;;12.10;;
28577;SDS011;15769;52.248;15.818;2023-05-19T20:51:33;23.85;;;10.73;;
28577;SDS011;15769;52.248;15.818;2023-05-19T20:56:39;22.35;;;10.40;;
28577;SDS011;15769;52.248;15.818;2023-05-19T21:01:43;18.95;;;10.07;;
28577;SDS011;15769;52.248;15.818;2023-05-19T21:06:47;14.07;;;7.43;;
28577;SDS011;15769;52.248;15.818;2023-05-19T21:11:51;13.38;;;7.78;;
28577;SDS011;15769;52.248;15.818;2023-05-19T21:16:55;13.25;;;7.03;;
28577;SDS011;15769;52.248;15.818;2023-05-19T21:21:58;10.88;;;6.30;;
28577;SDS011;15769;52.248;15.818;2023-05-19T21:27:03;13.30;;;6.18;;
28577;SDS011;15769;52.248;15.818;2023-05-19T21:32:13;13.60;;;8.10;;
28577;SDS011;15769;52.248;15.818;2023-05-19T21:37:21;12.35;;;6.50;;
28577;SDS011;15769;52.248;15.818;2023-05-19T21:42:26;17.20;;;8.18;;
28577;SDS011;15769;52.248;15.818;2023-05-19T21:47:30;12.70;;;6.75;;
28577;SDS011;15769;52.248;15.818;2023-05-19T21:52:33;9.18;;;6.15;;
28577;SDS011;15769;52.248;15.818;2023-05-19T21:57:38;9.55;;;5.40;;
28577;SDS011;15769;52.248;15.818;2023-05-19T22:02:41;7.10;;;5.30;;
28577;SDS011;15769;52.248;15.818;2023-05-19T22:07:46;10.20;;;5.43;;
28577;SDS011;15769;52.248;15.818;2023-05-19T22:17:52;8.55;;;5.20;;
28577;SDS011;15769;52.248;15.818;2023-05-19T22:22:56;8.93;;;5.47;;
28577;SDS011;15769;52.248;15.818;2023-05-19T22:28:00;8.77;;;5.05;;
28577;SDS011;15769;52.248;15.818;2023-05-19T22:33:03;10.57;;;6.22;;
28577;SDS011;15769;52.248;15.818;2023-05-19T22:38:06;9.95;;;6.07;;
28577;SDS011;15769;52.248;15.818;2023-05-19T22:43:13;14.07;;;7.20;;
28577;SDS011;15769;52.248;15.818;2023-05-19T22:48:19;8.85;;;5.53;;
28577;SDS011;15769;52.248;15.818;2023-05-19T22:53:22;10.85;;;6.47;;
28577;SDS011;15769;52.248;15.818;2023-05-19T22:58:24;12.07;;;6.03;;
28577;SDS011;15769;52.248;15.818;2023-05-19T23:03:27;10.55;;;5.85;;
28577;SDS011;15769;52.248;15.818;2023-05-19T23:08:35;9.52;;;4.90;;
28577;SDS011;15769;52.248;15.818;2023-05-19T23:13:37;8.25;;;4.75;;
28577;SDS011;15769;52.248;15.818;2023-05-19T23:18:41;7.97;;;4.85;;
28577;SDS011;15769;52.248;15.818;2023-05-19T23:23:44;9.85;;;5.65;;
28577;SDS011;15769;52.248;15.818;2023-05-19T23:28:51;10.38;;;5.57;;
28577;SDS011;15769;52.248;15.818;2023-05-19T23:33:54;9.18;;;5.13;;
28577;SDS011;15769;52.248;15.818;2023-05-19T23:38:58;11.43;;;4.90;;
28577;SDS011;15769;52.248;15.818;2023-05-19T23:44:01;11.68;;;6.30;;
28577;SDS011;15769;52.248;15.818;2023-05-19T23:49:04;11.23;;;6.23;;
28577;SDS011;15769;52.248;15.818;2023-05-19T23:54:07;9.50;;;4.82;;
28577;SDS011;15769;52.248;15.818;2023-05-19T23:59:10;11.45;;;7.40;;
